Time;durP1;ratioP1;P1;durP2;ratioP2;P2;SDS_P1;SDS_P2;PMS_P1;PMS_P2;Temp;Humidity;BMP_temperature;BMP_pressure;BME280_temperature;BME280_humidity;BME280_pressure;Samples;Min_cycle;Max_cycle;Signal;HPM_P1;HPM_P2
2021/10/11 00:01:00;;;;;;;32.90;15.50;;;;;;;3.75;68.48;100797.52;112546;1199;25117;-63
2021/10/11 00:03:29;;;;;;;26.60;15.60;;;;;;;3.72;68.73;100793.63;112616;1199;25116;-63
2021/10/11 00:05:58;;;;;;;28.80;15.50;;;;;;;3.69;68.83;100793.65;116698;1198;139126;-62
2021/10/11 00:08:25;;;;;;;33.70;15.30;;;;;;;3.67;69.03;100790.90;116846;1198;22355;-63
2021/10/11 00:11:09;;;;;;;27.60;15.10;;;;;;;3.67;69.24;100789.13;116741;1198;141273;-63
2021/10/11 00:13:37;;;;;;;26.90;15.20;;;;;;;3.71;69.12;100790.91;116845;1198;22325;-63
2021/10/11 00:16:05;;;;;;;31.40;14.30;;;;;;;3.75;69.31;100784.16;116866;1199;23201;-63
2021/10/11 00:18:44;;;;;;;27.70;15.20;;;;;;;3.80;69.01;100782.16;116751;1198;137333;-63
2021/10/11 00:21:12;;;;;;;28.60;15.80;;;;;;;3.83;69.13;100783.05;116803;1199;22391;-63
2021/10/11 00:23:40;;;;;;;24.70;14.00;;;;;;;3.84;68.76;100778.52;116733;1199;138223;-63
2021/10/11 00:26:08;;;;;;;23.10;14.40;;;;;;;3.86;68.74;100777.77;116878;1198;23561;-62
2021/10/11 00:28:36;;;;;;;24.50;14.50;;;;;;;3.86;68.72;100770.76;116762;1199;138086;-63
2021/10/11 00:31:04;;;;;;;31.20;15.10;;;;;;;3.87;68.58;100773.55;116881;1199;22320;-62
2021/10/11 00:33:33;;;;;;;26.00;14.70;;;;;;;3.89;68.52;100770.59;116855;1198;22236;-64
2021/10/11 00:36:01;;;;;;;27.10;14.70;;;;;;;3.91;68.59;100768.36;116768;1199;137195;-64
2021/10/11 00:38:29;;;;;;;25.60;15.40;;;;;;;3.93;68.47;100767.23;116807;1199;22331;-63
2021/10/11 00:40:57;;;;;;;26.50;13.40;;;;;;;3.97;68.54;100764.34;116732;1199;137874;-64
2021/10/11 00:43:25;;;;;;;29.30;15.50;;;;;;;4.01;68.31;100763.13;116888;1199;22325;-64
2021/10/11 00:45:53;;;;;;;28.70;14.70;;;;;;;4.05;68.23;100765.87;116872;1198;22227;-64
2021/10/11 00:48:21;;;;;;;25.20;14.80;;;;;;;4.10;67.90;100765.03;116752;1198;138216;-64
2021/10/11 00:50:49;;;;;;;26.20;13.20;;;;;;;4.13;67.90;100764.09;116879;1199;22242;-64
2021/10/11 00:54:08;;;;;;;26.10;14.20;;;;;;;4.17;67.67;100764.56;110871;1214;544906;-64
2021/10/11 00:56:36;;;;;;;25.10;14.40;;;;;;;4.14;67.28;100763.69;112152;1203;22450;-63
2021/10/11 00:59:04;;;;;;;25.60;14.30;;;;;;;4.12;67.37;100759.92;111834;1204;138391;-63
2021/10/11 01:01:32;;;;;;;27.00;14.70;;;;;;;4.07;67.20;100757.45;112068;1204;24280;-64
2021/10/11 01:04:05;;;;;;;26.80;15.10;;;;;;;4.01;67.24;100753.14;112143;1196;24021;-63
2021/10/11 01:06:36;;;;;;;36.20;16.10;;;;;;;3.96;67.42;100752.59;116025;1197;136467;-64
2021/10/11 01:09:05;;;;;;;31.10;16.30;;;;;;;3.89;67.27;100748.61;116230;1203;22363;-64
2021/10/11 01:11:33;;;;;;;51.40;15.70;;;;;;;3.85;67.47;100750.17;116916;1197;137164;-64
2021/10/11 01:14:04;;;;;;;42.50;15.20;;;;;;;3.81;67.65;100746.81;117010;1198;22231;-64
2021/10/11 01:16:33;;;;;;;27.50;14.80;;;;;;;3.76;67.97;100745.95;116935;1198;136756;-64
2021/10/11 01:19:01;;;;;;;23.60;15.10;;;;;;;3.72;68.12;100746.77;117022;1198;22350;-64
2021/10/11 01:21:29;;;;;;;38.10;15.40;;;;;;;3.69;67.76;100742.73;117028;1197;22996;-64
2021/10/11 01:23:57;;;;;;;31.50;14.00;;;;;;;3.64;67.90;100742.02;116851;1198;137572;-64
2021/10/11 01:26:35;;;;;;;33.00;14.10;;;;;;;3.59;68.04;100741.17;116916;1192;22348;-64
2021/10/11 01:29:04;;;;;;;33.60;14.00;;;;;;;3.55;68.02;100738.61;116799;1198;138507;-64
2021/10/11 01:31:33;;;;;;;23.40;13.60;;;;;;;3.48;68.43;100737.65;116850;1198;22336;-64
2021/10/11 01:34:01;;;;;;;30.40;14.70;;;;;;;3.43;68.61;100732.66;116871;1198;22168;-64
2021/10/11 01:36:30;;;;;;;26.00;14.60;;;;;;;3.38;68.79;100726.27;116828;1198;137959;-64
2021/10/11 01:38:59;;;;;;;26.60;14.60;;;;;;;3.33;68.67;100724.69;116916;1198;23044;-64
2021/10/11 01:41:27;;;;;;;28.40;14.30;;;;;;;3.28;68.85;100723.37;116781;1198;137436;-64
2021/10/11 01:43:56;;;;;;;22.90;12.90;;;;;;;3.23;69.06;100722.12;117009;1198;23538;-65
2021/10/11 01:46:24;;;;;;;25.20;14.70;;;;;;;3.18;69.04;100719.75;116770;1198;137436;-65
2021/10/11 01:48:52;;;;;;;29.10;14.60;;;;;;;3.14;69.32;100720.82;116898;1198;22375;-64
2021/10/11 01:51:22;;;;;;;26.00;15.00;;;;;;;3.11;69.60;100724.27;116922;1198;22543;-65
2021/10/11 01:53:53;;;;;;;25.10;13.70;;;;;;;3.09;69.78;100725.33;116727;1198;137044;-63
2021/10/11 01:56:21;;;;;;;27.70;15.40;;;;;;;3.07;69.71;100723.52;116954;1198;22389;-63
2021/10/11 01:58:50;;;;;;;26.80;15.10;;;;;;;3.04;69.82;100720.40;116791;1198;138944;-63
2021/10/11 02:01:18;;;;;;;26.90;15.40;;;;;;;2.99;69.84;100715.08;116821;1199;22321;-64
2021/10/11 02:03:46;;;;;;;28.90;15.10;;;;;;;2.95;70.07;100710.33;116925;1198;22351;-64
2021/10/11 02:06:14;;;;;;;26.70;15.00;;;;;;;2.92;69.99;100708.96;116703;1198;138009;-64
2021/10/11 02:08:42;;;;;;;24.30;14.00;;;;;;;2.88;70.19;100707.99;116949;1198;23007;-64
2021/10/11 02:11:10;;;;;;;25.80;15.10;;;;;;;2.85;70.31;100705.66;116796;1198;137183;-64
2021/10/11 02:13:38;;;;;;;22.20;14.20;;;;;;;2.80;70.30;100705.81;116846;1198;22291;-64
2021/10/11 02:16:07;;;;;;;21.70;14.40;;;;;;;2.77;70.47;100703.67;116901;1198;22353;-64
2021/10/11 02:18:35;;;;;;;24.10;15.10;;;;;;;2.74;70.63;100704.88;116682;1198;138609;-64
2021/10/11 02:21:03;;;;;;;19.70;13.00;;;;;;;2.73;70.80;100696.95;116907;1198;22312;-64
2021/10/11 02:23:32;;;;;;;21.70;14.10;;;;;;;2.69;70.87;100691.50;116744;1198;137463;-64
2021/10/11 02:26:00;;;;;;;26.70;13.00;;;;;;;2.68;70.90;100695.23;116875;1198;22331;-63
2021/10/11 02:28:28;;;;;;;22.90;14.30;;;;;;;2.64;70.93;100692.59;116758;1198;139342;-63
2021/10/11 02:30:57;;;;;;;22.00;13.00;;;;;;;2.63;70.88;100688.13;116907;1191;22128;-63
2021/10/11 02:33:25;;;;;;;30.20;13.70;;;;;;;2.60;71.01;100681.68;116827;1198;22308;-64
2021/10/11 02:35:53;;;;;;;21.60;12.90;;;;;;;2.57;71.32;100682.51;116790;1198;138923;-65
2021/10/11 02:38:23;;;;;;;26.90;13.60;;;;;;;2.57;71.38;100680.59;116857;1198;23520;-65
2021/10/11 02:40:51;;;;;;;24.90;13.50;;;;;;;2.56;71.39;100679.05;116788;1198;139537;-65
2021/10/11 02:43:19;;;;;;;23.20;13.50;;;;;;;2.56;71.48;100673.53;116882;1198;22277;-65
2021/10/11 02:45:47;;;;;;;24.60;13.80;;;;;;;2.57;71.59;100671.98;116910;1185;22336;-65
2021/10/11 02:48:15;;;;;;;26.40;14.90;;;;;;;2.57;71.45;100668.75;116806;1198;139102;-65
2021/10/11 02:50:44;;;;;;;22.20;13.90;;;;;;;2.56;71.58;100659.58;116897;1198;22322;-65
2021/10/11 02:53:12;;;;;;;27.00;13.30;;;;;;;2.56;71.76;100656.31;116768;1198;137930;-63
2021/10/11 02:55:40;;;;;;;23.90;13.50;;;;;;;2.56;71.63;100654.83;116977;1198;23048;-65
2021/10/11 02:58:08;;;;;;;23.50;13.40;;;;;;;2.57;71.52;100656.04;116923;1192;22344;-65
2021/10/11 03:00:36;;;;;;;25.90;14.00;;;;;;;2.56;71.57;100647.04;116833;1198;137664;-65
2021/10/11 03:03:05;;;;;;;22.80;13.60;;;;;;;2.53;71.72;100648.05;116857;1198;23048;-65
2021/10/11 03:05:35;;;;;;;22.80;12.90;;;;;;;2.51;71.62;100648.23;116862;1197;137931;-65
2021/10/11 03:08:04;;;;;;;21.00;13.10;;;;;;;2.51;71.65;100648.63;116987;1198;22294;-65
2021/10/11 03:10:32;;;;;;;22.10;13.70;;;;;;;2.48;71.38;100643.87;116820;1197;138109;-65
2021/10/11 03:13:00;;;;;;;22.20;14.10;;;;;;;2.47;71.56;100645.27;116950;1198;22296;-64
2021/10/11 03:15:28;;;;;;;26.30;13.60;;;;;;;2.47;71.67;100641.33;116894;1198;22195;-65
2021/10/11 03:17:57;;;;;;;19.10;12.10;;;;;;;2.47;71.85;100639.08;116782;1198;137541;-65
2021/10/11 03:20:25;;;;;;;19.60;12.60;;;;;;;2.48;71.95;100637.25;117012;1198;23567;-64
2021/10/11 03:22:53;;;;;;;23.30;13.90;;;;;;;2.52;72.15;100635.79;116856;1198;137812;-64
2021/10/11 03:25:21;;;;;;;26.00;14.00;;;;;;;2.56;72.03;100629.17;116953;1198;23354;-65
2021/10/11 03:27:49;;;;;;;21.70;13.00;;;;;;;2.61;72.20;100625.35;116942;1198;22326;-64
2021/10/11 03:30:17;;;;;;;24.10;12.70;;;;;;;2.63;71.65;100622.61;116882;1198;137562;-65
2021/10/11 03:32:45;;;;;;;23.50;14.30;;;;;;;2.63;71.35;100619.84;117007;1192;22243;-64
2021/10/11 03:35:14;;;;;;;26.50;13.50;;;;;;;2.61;71.42;100620.38;116862;1198;137108;-64
2021/10/11 03:37:42;;;;;;;25.90;13.80;;;;;;;2.60;71.37;100620.33;116972;1198;22335;-64
2021/10/11 03:40:10;;;;;;;22.40;14.40;;;;;;;2.60;71.47;100624.97;117054;1197;22333;-64
2021/10/11 03:42:38;;;;;;;22.60;13.10;;;;;;;2.61;71.51;100624.69;116861;1183;137701;-64
2021/10/11 03:45:07;;;;;;;24.40;14.10;;;;;;;2.61;71.38;100625.39;116983;1198;22258;-64
2021/10/11 03:47:37;;;;;;;24.00;14.10;;;;;;;2.60;71.28;100625.67;116816;1198;137006;-64
2021/10/11 03:50:08;;;;;;;23.90;13.90;;;;;;;2.59;71.45;100624.17;116966;1197;22300;-64
2021/10/11 03:52:36;;;;;;;23.70;13.40;;;;;;;2.57;71.32;100616.55;116782;1198;138836;-64
2021/10/11 03:55:04;;;;;;;22.80;13.70;;;;;;;2.55;71.32;100615.40;116979;1198;22213;-64
2021/10/11 03:57:32;;;;;;;26.20;14.40;;;;;;;2.50;71.30;100613.87;116904;1198;22254;-64
2021/10/11 04:00:01;;;;;;;25.00;14.40;;;;;;;2.47;71.40;100612.11;116888;1198;139479;-64
2021/10/11 04:02:38;;;;;;;25.20;12.90;;;;;;;2.45;71.60;100607.39;116975;1197;22227;-63
2021/10/11 04:05:07;;;;;;;23.70;13.40;;;;;;;2.41;71.58;100605.02;116859;1198;138116;-64
2021/10/11 04:07:41;;;;;;;25.90;14.30;;;;;;;2.40;71.87;100603.33;112702;1193;25356;-63
2021/10/11 04:10:11;;;;;;;28.10;14.70;;;;;;;2.42;71.90;100609.13;116955;1198;23113;-63
2021/10/11 04:12:50;;;;;;;25.90;13.80;;;;;;;2.42;71.74;100612.73;116891;1198;139032;-64
2021/10/11 04:15:19;;;;;;;36.90;15.40;;;;;;;2.40;71.71;100611.54;117012;1192;22302;-63
2021/10/11 04:17:48;;;;;;;34.30;16.70;;;;;;;2.38;71.81;100611.98;116818;1198;138515;-63
2021/10/11 04:20:18;;;;;;;33.50;15.50;;;;;;;2.38;72.33;100605.41;117021;1198;23197;-63
2021/10/11 04:22:46;;;;;;;27.60;16.50;;;;;;;2.42;72.76;100603.72;116871;1197;138001;-63
2021/10/11 04:25:14;;;;;;;31.20;15.40;;;;;;;2.47;72.89;100598.86;116941;1198;22312;-63
2021/10/11 04:27:42;;;;;;;29.70;15.20;;;;;;;2.54;72.88;100593.11;116944;1198;22300;-62
2021/10/11 04:30:10;;;;;;;34.30;14.70;;;;;;;2.56;72.49;100586.03;116831;1198;137679;-62
2021/10/11 04:32:38;;;;;;;27.10;14.80;;;;;;;2.55;72.11;100587.79;116941;1197;22458;-62
2021/10/11 04:35:07;;;;;;;27.40;15.40;;;;;;;2.51;72.12;100583.74;116855;1198;137954;-62
2021/10/11 04:37:38;;;;;;;28.00;15.10;;;;;;;2.50;71.98;100589.55;116982;1198;23369;-62
2021/10/11 04:40:07;;;;;;;25.00;14.70;;;;;;;2.48;71.97;100591.77;116917;1198;24535;-62
2021/10/11 04:42:36;;;;;;;39.90;15.80;;;;;;;2.45;71.86;100592.83;116866;1198;137707;-62
2021/10/11 04:45:04;;;;;;;37.80;15.70;;;;;;;2.44;71.88;100592.59;116986;1198;23150;-62
2021/10/11 04:47:32;;;;;;;41.50;16.00;;;;;;;2.44;72.19;100589.89;116849;1198;137647;-62
2021/10/11 04:50:00;;;;;;;38.10;16.50;;;;;;;2.45;72.41;100591.39;116885;1198;22531;-63
2021/10/11 04:52:31;;;;;;;44.30;18.20;;;;;;;2.44;72.61;100583.89;116918;1197;138275;-62
2021/10/11 04:54:59;;;;;;;43.10;18.40;;;;;;;2.48;73.23;100582.05;117008;1197;22290;-62
2021/10/11 04:57:27;;;;;;;40.90;21.20;;;;;;;2.54;73.39;100577.84;116970;1198;22348;-62
2021/10/11 04:59:55;;;;;;;49.00;20.80;;;;;;;2.65;73.99;100575.97;116875;1198;138573;-62
2021/10/11 05:02:23;;;;;;;42.70;21.70;;;;;;;2.81;74.10;100576.53;116964;1198;22322;-62
2021/10/11 05:04:51;;;;;;;42.20;19.10;;;;;;;2.97;74.02;100576.50;116859;1197;138141;-62
2021/10/11 05:07:19;;;;;;;43.00;20.00;;;;;;;3.11;73.90;100573.82;117025;1198;22309;-63
2021/10/11 05:09:52;;;;;;;46.50;21.30;;;;;;;3.32;73.94;100570.95;116959;1198;22237;-62
2021/10/11 05:12:20;;;;;;;44.60;20.50;;;;;;;3.52;73.90;100566.67;116888;1197;140660;-62
2021/10/11 05:14:58;;;;;;;47.30;20.00;;;;;;;3.75;73.16;100568.58;117023;1197;22316;-62
2021/10/11 05:17:26;;;;;;;41.30;18.90;;;;;;;3.97;73.10;100562.42;116894;1198;139469;-62
2021/10/11 05:19:54;;;;;;;43.80;20.70;;;;;;;4.20;72.20;100562.02;116982;1198;22250;-62
2021/10/11 05:22:22;;;;;;;40.70;20.00;;;;;;;4.41;71.80;100557.58;116928;1198;22266;-62
2021/10/11 05:24:50;;;;;;;39.40;19.90;;;;;;;4.60;71.14;100557.52;116866;1197;138054;-63
2021/10/11 05:27:19;;;;;;;43.50;21.50;;;;;;;4.75;70.75;100557.17;117019;1197;22115;-62
2021/10/11 05:29:47;;;;;;;46.30;18.40;;;;;;;4.90;70.08;100555.32;116878;1198;138391;-63
2021/10/11 05:32:15;;;;;;;41.30;20.30;;;;;;;5.03;69.54;100554.34;116996;1198;22333;-62
2021/10/11 05:34:44;;;;;;;45.10;20.40;;;;;;;5.16;69.16;100546.95;116846;1196;137359;-63
2021/10/11 05:37:12;;;;;;;42.00;20.00;;;;;;;5.28;68.72;100548.31;116733;1199;22208;-63
2021/10/11 05:39:41;;;;;;;42.40;20.30;;;;;;;5.40;68.35;100550.59;116955;1198;22300;-62
2021/10/11 05:42:09;;;;;;;41.50;20.00;;;;;;;5.52;67.79;100552.06;116890;1198;137110;-63
2021/10/11 05:44:37;;;;;;;43.00;21.00;;;;;;;5.64;67.68;100552.08;117030;1198;22379;-63
2021/10/11 05:47:05;;;;;;;42.20;20.70;;;;;;;5.76;67.28;100551.14;116922;1198;138151;-62
2021/10/11 05:49:33;;;;;;;40.80;20.70;;;;;;;5.86;67.00;100550.52;116978;1198;23297;-62
2021/10/11 05:52:02;;;;;;;42.70;22.10;;;;;;;5.95;66.89;100544.09;116905;1198;22397;-62
2021/10/11 05:54:30;;;;;;;50.40;22.00;;;;;;;6.03;66.70;100542.13;116861;1198;137970;-63
2021/10/11 05:56:58;;;;;;;35.90;20.50;;;;;;;6.12;66.64;100541.19;116906;1198;22307;-62
2021/10/11 05:59:26;;;;;;;44.00;21.00;;;;;;;6.20;66.40;100544.00;116924;1198;138975;-61
2021/10/11 06:01:54;;;;;;;42.60;20.90;;;;;;;6.30;66.32;100543.91;116795;1198;22261;-62
2021/10/11 06:04:22;;;;;;;42.00;23.00;;;;;;;6.41;66.32;100547.95;117015;1197;22126;-62
2021/10/11 06:06:50;;;;;;;46.10;23.30;;;;;;;6.52;65.57;100548.89;116702;1199;137616;-62
2021/10/11 06:09:18;;;;;;;38.80;22.80;;;;;;;6.64;65.23;100556.23;117025;1198;22311;-62
2021/10/11 06:11:46;;;;;;;44.50;22.80;;;;;;;6.76;64.90;100555.24;116952;1198;137257;-62
2021/10/11 06:14:23;;;;;;;39.20;24.20;;;;;;;6.88;64.47;100557.04;116965;1198;22423;-62
2021/10/11 06:16:51;;;;;;;43.70;22.80;;;;;;;6.98;64.00;100558.61;116875;1197;137271;-62
2021/10/11 06:19:19;;;;;;;42.50;21.50;;;;;;;7.09;63.54;100558.27;116768;1199;22324;-62
2021/10/11 06:21:47;;;;;;;45.10;22.50;;;;;;;7.17;63.18;100562.65;116951;1198;23297;-62
2021/10/11 06:24:15;;;;;;;41.50;21.00;;;;;;;7.22;62.67;100565.14;116888;1198;137591;-62
2021/10/11 06:26:43;;;;;;;39.60;21.70;;;;;;;7.27;62.30;100559.96;116993;1198;22359;-63
2021/10/11 06:29:11;;;;;;;34.30;20.80;;;;;;;7.31;61.96;100560.92;116847;1198;137729;-63
2021/10/11 06:31:39;;;;;;;38.20;21.70;;;;;;;7.37;62.21;100554.73;117062;1198;22644;-62
2021/10/11 06:34:07;;;;;;;46.30;23.10;;;;;;;7.44;62.11;100549.34;116964;1198;22227;-63
2021/10/11 06:36:36;;;;;;;40.50;22.00;;;;;;;7.53;61.85;100548.23;116934;1197;138252;-62
2021/10/11 06:39:04;;;;;;;38.60;21.30;;;;;;;7.59;61.92;100546.38;117029;1198;23071;-63
2021/10/11 06:41:33;;;;;;;34.20;21.90;;;;;;;7.63;61.71;100542.95;116926;1198;137787;-63
2021/10/11 06:44:01;;;;;;;42.70;22.70;;;;;;;7.65;61.80;100538.83;117033;1197;22312;-63
2021/10/11 06:46:30;;;;;;;41.20;20.90;;;;;;;7.69;61.70;100538.65;116896;1198;137706;-63
2021/10/11 06:48:58;;;;;;;37.90;21.50;;;;;;;7.75;61.49;100537.97;116925;1198;23081;-62
2021/10/11 06:51:26;;;;;;;43.90;22.30;;;;;;;7.81;61.34;100530.55;116833;1199;23341;-63
2021/10/11 06:53:55;;;;;;;46.90;23.50;;;;;;;7.88;61.23;100526.06;116855;1197;138097;-64
2021/10/11 06:56:23;;;;;;;35.00;23.20;;;;;;;7.93;60.97;100522.41;117067;1198;22318;-63
2021/10/11 06:58:51;;;;;;;53.30;27.00;;;;;;;7.99;61.07;100518.20;116877;1198;139025;-63
2021/10/11 07:01:20;;;;;;;49.10;25.60;;;;;;;8.05;61.10;100514.28;116926;1198;22540;-63
2021/10/11 07:03:49;;;;;;;43.30;22.30;;;;;;;8.14;61.05;100511.10;117028;1198;22317;-66
2021/10/11 07:06:19;;;;;;;39.30;20.60;;;;;;;8.21;60.31;100507.47;116876;1198;137424;-63
2021/10/11 07:08:47;;;;;;;39.80;23.40;;;;;;;8.32;58.87;100504.95;117062;1197;22359;-62
2021/10/11 07:11:15;;;;;;;38.30;21.90;;;;;;;8.44;58.78;100504.67;116856;1198;138186;-64
2021/10/11 07:13:43;;;;;;;42.00;24.40;;;;;;;8.54;58.51;100504.26;116976;1198;22250;-65
2021/10/11 07:16:18;;;;;;;40.40;22.50;;;;;;;8.65;58.31;100506.39;117027;1197;22370;-65
2021/10/11 07:18:46;;;;;;;44.70;24.10;;;;;;;8.72;58.12;100502.69;116855;1197;136929;-64
2021/10/11 07:21:14;;;;;;;39.70;23.40;;;;;;;8.80;57.90;100500.78;117040;1198;22464;-65
2021/10/11 07:23:42;;;;;;;36.50;23.00;;;;;;;8.89;57.74;100500.41;116601;1198;138325;-65
2021/10/11 07:26:10;;;;;;;38.60;20.60;;;;;;;9.01;57.26;100496.58;115172;1198;25627;-64
2021/10/11 07:28:38;;;;;;;44.60;22.70;;;;;;;9.12;56.76;100494.95;116958;1197;138731;-64
2021/10/11 07:31:06;;;;;;;46.90;24.00;;;;;;;9.20;56.10;100491.21;116968;1198;22227;-64
2021/10/11 07:33:35;;;;;;;36.60;21.00;;;;;;;9.31;55.66;100487.02;116972;1198;22333;-63
2021/10/11 07:36:03;;;;;;;43.30;22.60;;;;;;;9.40;55.24;100491.69;116883;1198;138198;-64
2021/10/11 07:38:31;;;;;;;41.40;21.20;;;;;;;9.49;54.54;100489.85;116993;1198;22943;-64
2021/10/11 07:41:01;;;;;;;37.30;20.60;;;;;;;9.55;54.26;100491.50;116867;1198;137551;-63
2021/10/11 07:43:29;;;;;;;29.20;20.20;;;;;;;9.60;53.81;100486.86;116986;1198;23255;-64
2021/10/11 07:46:03;;;;;;;43.60;22.40;;;;;;;9.62;53.54;100480.71;116940;1197;22978;-64
2021/10/11 07:48:31;;;;;;;42.70;24.00;;;;;;;9.67;53.97;100476.09;116900;1198;137861;-64
2021/10/11 07:50:59;;;;;;;39.50;22.00;;;;;;;9.75;53.52;100475.02;116909;1198;22334;-63
2021/10/11 07:53:28;;;;;;;45.20;21.90;;;;;;;9.84;53.40;100474.03;116835;1198;138984;-63
2021/10/11 07:55:57;;;;;;;42.30;21.70;;;;;;;9.92;53.33;100474.27;115720;1198;25084;-63
2021/10/11 07:58:26;;;;;;;41.80;20.70;;;;;;;9.99;53.14;100472.27;116997;1198;22305;-64
2021/10/11 08:00:54;;;;;;;42.50;23.00;;;;;;;10.05;53.12;100470.14;116895;1198;139055;-64
2021/10/11 08:03:25;;;;;;;40.70;21.90;;;;;;;10.10;52.87;100469.85;117034;1198;22767;-64
2021/10/11 08:05:54;;;;;;;39.70;19.50;;;;;;;10.15;52.67;100468.77;116848;1198;137546;-64
2021/10/11 08:08:22;;;;;;;34.10;17.90;;;;;;;10.20;52.45;100463.08;117033;1198;22379;-64
2021/10/11 08:10:50;;;;;;;33.30;18.10;;;;;;;10.25;52.00;100457.55;116854;1198;138302;-64
2021/10/11 08:13:20;;;;;;;39.10;18.90;;;;;;;10.33;51.81;100456.69;116997;1198;22233;-64
2021/10/11 08:16:06;;;;;;;33.90;16.30;;;;;;;10.42;51.19;100451.58;117061;1198;22301;-64
2021/10/11 08:18:34;;;;;;;33.60;18.10;;;;;;;10.54;50.26;100457.51;116910;1198;138525;-64
2021/10/11 08:21:04;;;;;;;39.30;17.30;;;;;;;10.62;49.63;100457.04;117080;1198;22465;-64
2021/10/11 08:23:39;;;;;;;42.60;19.50;;;;;;;10.71;49.67;100454.24;116887;1198;137716;-64
2021/10/11 08:26:08;;;;;;;46.60;20.40;;;;;;;10.81;49.14;100452.00;117024;1198;22315;-64
2021/10/11 08:28:38;;;;;;;43.30;22.50;;;;;;;10.90;49.03;100442.02;116815;1198;139245;-63
2021/10/11 08:31:06;;;;;;;34.00;18.70;;;;;;;10.98;49.63;100436.63;116809;1198;22367;-63
2021/10/11 08:33:35;;;;;;;34.30;15.80;;;;;;;11.06;49.36;100430.96;116877;1198;22291;-64
2021/10/11 08:36:04;;;;;;;27.90;16.30;;;;;;;11.15;48.95;100428.55;116908;1193;138519;-64
2021/10/11 08:38:32;;;;;;;33.90;18.90;;;;;;;11.24;48.31;100425.10;116871;1198;22248;-64
2021/10/11 08:41:01;;;;;;;93.70;54.40;;;;;;;11.31;47.91;100418.32;116992;1198;137798;-64
2021/10/11 08:43:30;;;;;;;49.90;28.60;;;;;;;11.37;48.03;100416.04;116991;1198;22389;-64
2021/10/11 08:45:57;;;;;;;50.40;27.70;;;;;;;11.41;48.09;100411.37;117013;1198;22241;-64
2021/10/11 08:48:26;;;;;;;40.20;19.30;;;;;;;11.46;48.24;100414.20;116935;1197;137737;-64
2021/10/11 08:50:54;;;;;;;34.10;18.80;;;;;;;11.52;47.94;100411.48;116818;1198;23245;-65
2021/10/11 08:53:22;;;;;;;30.70;14.90;;;;;;;11.57;47.53;100403.34;116911;1198;138541;-65
2021/10/11 08:55:50;;;;;;;32.40;16.30;;;;;;;11.62;46.97;100399.96;115904;1198;22444;-65
2021/10/11 08:58:18;;;;;;;32.50;14.50;;;;;;;11.67;47.53;100400.20;117012;1198;23165;-64
2021/10/11 09:00:46;;;;;;;26.80;15.30;;;;;;;11.71;47.44;100400.88;116945;1198;137555;-65
2021/10/11 09:03:18;;;;;;;24.40;13.80;;;;;;;11.76;46.91;100390.73;116997;1198;22351;-65
2021/10/11 09:05:53;;;;;;;25.20;12.80;;;;;;;11.81;46.97;100393.08;116913;1198;138571;-65
2021/10/11 09:08:21;;;;;;;18.30;11.30;;;;;;;11.83;46.69;100390.98;117080;1198;22250;-65
2021/10/11 09:10:52;;;;;;;20.80;11.30;;;;;;;11.84;46.29;100386.90;116639;1199;138351;-64
2021/10/11 09:13:23;;;;;;;21.90;10.70;;;;;;;11.86;46.37;100390.00;117049;1198;22399;-65
2021/10/11 09:16:16;;;;;;;19.80;11.60;;;;;;;11.89;46.48;100385.14;116816;1198;22310;-65
2021/10/11 09:18:56;;;;;;;23.70;12.20;;;;;;;11.97;46.36;100384.25;116884;1198;137944;-65
2021/10/11 09:21:34;;;;;;;27.20;12.60;;;;;;;12.05;45.99;100380.40;117051;1198;23305;-66
2021/10/11 09:24:12;;;;;;;28.10;13.40;;;;;;;12.13;45.57;100374.41;116914;1198;137521;-63
2021/10/11 09:26:45;;;;;;;22.30;13.40;;;;;;;12.16;44.85;100365.08;116983;1198;22359;-63
2021/10/11 09:29:14;;;;;;;23.00;13.20;;;;;;;12.20;45.26;100361.27;116885;1198;137708;-63
2021/10/11 09:31:47;;;;;;;25.50;13.40;;;;;;;12.23;45.30;100356.94;117010;1197;23121;-63
2021/10/11 09:34:19;;;;;;;24.00;13.90;;;;;;;12.25;45.50;100358.78;116986;1198;22344;-63
2021/10/11 09:37:00;;;;;;;27.60;16.10;;;;;;;12.25;45.44;100355.41;116987;1197;138342;-63
2021/10/11 09:39:29;;;;;;;27.50;14.80;;;;;;;12.28;45.70;100357.78;116742;1199;22332;-63
2021/10/11 09:41:58;;;;;;;28.10;15.70;;;;;;;12.29;45.35;100351.96;116674;1198;137441;-63
2021/10/11 09:44:27;;;;;;;26.70;16.40;;;;;;;12.32;45.47;100349.59;117084;1198;22228;-63
2021/10/11 09:47:02;;;;;;;31.40;18.00;;;;;;;12.35;45.58;100348.46;116730;1197;139193;-63
2021/10/11 09:49:30;;;;;;;31.10;16.90;;;;;;;12.40;45.63;100345.09;116984;1198;22370;-64
2021/10/11 09:51:59;;;;;;;31.90;16.50;;;;;;;12.41;45.62;100346.52;117046;1198;22388;-63
2021/10/11 09:54:27;;;;;;;28.20;17.40;;;;;;;12.44;45.45;100347.64;116776;1198;138341;-63
2021/10/11 09:57:00;;;;;;;29.90;17.00;;;;;;;12.49;45.40;100343.15;117087;1197;23083;-63
2021/10/11 09:59:29;;;;;;;30.10;15.80;;;;;;;12.53;45.65;100338.67;116956;1198;137962;-63
2021/10/11 10:01:57;;;;;;;34.80;16.20;;;;;;;12.56;45.57;100337.27;116713;1197;22229;-63
2021/10/11 10:04:27;;;;;;;31.00;16.30;;;;;;;12.57;45.32;100329.15;116714;1198;22284;-64
2021/10/11 10:06:56;;;;;;;29.00;16.60;;;;;;;12.62;45.01;100330.05;116577;1199;138619;-63
2021/10/11 10:09:24;;;;;;;22.90;13.50;;;;;;;12.64;45.02;100328.87;116803;1199;22487;-63
2021/10/11 10:11:53;;;;;;;19.60;13.10;;;;;;;12.67;45.59;100324.88;116607;1199;138597;-63
2021/10/11 10:14:25;;;;;;;27.40;12.90;;;;;;;12.71;45.17;100318.91;117054;1197;22313;-63
2021/10/11 10:16:54;;;;;;;18.30;12.00;;;;;;;12.78;45.30;100315.83;116917;1198;138825;-64
2021/10/11 10:19:39;;;;;;;18.40;11.50;;;;;;;12.84;45.40;100312.08;117031;1197;22386;-63
2021/10/11 10:22:17;;;;;;;23.00;11.00;;;;;;;12.87;45.27;100302.71;117010;1192;23104;-63
2021/10/11 10:24:45;;;;;;;18.80;11.60;;;;;;;12.89;44.57;100302.80;116809;1198;137592;-63
2021/10/11 10:27:13;;;;;;;22.00;12.60;;;;;;;12.96;44.42;100301.35;116785;1199;23017;-63
2021/10/11 10:29:43;;;;;;;17.60;10.80;;;;;;;13.01;44.13;100301.13;116795;1198;138619;-64
2021/10/11 10:32:12;;;;;;;26.30;12.30;;;;;;;13.05;44.05;100306.38;116982;1198;23061;-64
2021/10/11 10:34:40;;;;;;;24.80;11.40;;;;;;;13.06;43.76;100300.61;116915;1197;138273;-64
2021/10/11 10:37:10;;;;;;;17.50;10.20;;;;;;;13.06;43.65;100297.27;117088;1197;22829;-64
2021/10/11 10:39:46;;;;;;;23.00;12.30;;;;;;;13.07;44.02;100294.98;117044;1197;22241;-64
2021/10/11 10:42:26;;;;;;;20.60;12.20;;;;;;;13.10;44.05;100289.83;116919;1198;137914;-64
2021/10/11 10:44:56;;;;;;;77.50;13.20;;;;;;;13.15;43.66;100282.39;116898;1199;22317;-64
2021/10/11 10:47:38;;;;;;;22.90;10.80;;;;;;;13.18;43.63;100276.75;116851;1197;137505;-64
2021/10/11 10:50:27;;;;;;;31.40;11.50;;;;;;;13.25;43.90;100271.64;117024;1198;22314;-63
2021/10/11 10:52:57;;;;;;;18.10;9.70;;;;;;;13.32;43.53;100264.41;116917;1198;137694;-64
2021/10/11 10:55:26;;;;;;;16.50;11.10;;;;;;;13.35;43.28;100262.98;117010;1198;22312;-64
2021/10/11 10:57:58;;;;;;;18.90;12.80;;;;;;;13.34;43.04;100255.25;116985;1197;22332;-64
2021/10/11 11:00:26;;;;;;;22.70;10.70;;;;;;;13.35;43.14;100250.71;116893;1198;138368;-64
2021/10/11 11:02:55;;;;;;;16.20;10.10;;;;;;;13.38;43.50;100247.85;117011;1198;22442;-64
2021/10/11 11:05:24;;;;;;;18.00;8.50;;;;;;;13.42;43.26;100242.41;116921;1198;137922;-64
2021/10/11 11:07:53;;;;;;;20.10;9.30;;;;;;;13.48;43.15;100239.95;117078;1198;22496;-64
2021/10/11 11:10:27;;;;;;;12.20;7.70;;;;;;;13.53;43.20;100231.79;116972;1198;22265;-64
2021/10/11 11:12:56;;;;;;;13.50;7.00;;;;;;;13.60;43.04;100229.70;116792;1198;137139;-64
2021/10/11 11:15:35;;;;;;;10.50;7.20;;;;;;;13.65;42.64;100226.35;117033;1198;22337;-64